createdAt,value
2022-11-20T00:01:26.669Z,43.15
2022-11-20T00:03:56.645Z,56.15
2022-11-20T00:06:24.428Z,48.30
2022-11-20T00:08:51.875Z,40.65
2022-11-20T00:11:24.459Z,53.22
2022-11-20T00:13:53.866Z,44.85
2022-11-20T00:16:23.960Z,52.10
2022-11-20T00:18:54.706Z,42.30
2022-11-20T00:21:27.241Z,53.05
2022-11-20T00:23:57.276Z,51.38
2022-11-20T00:26:26.055Z,53.78
2022-11-20T00:28:56.726Z,60.40
2022-11-20T00:31:24.631Z,49.35
2022-11-20T00:33:51.703Z,39.70
2022-11-20T00:36:24.866Z,51.58
2022-11-20T00:38:57.159Z,53.72
2022-11-20T00:41:25.872Z,38.58
2022-11-20T00:43:53.976Z,42.42
2022-11-20T00:46:23.922Z,45.28
2022-11-20T00:48:51.171Z,42.13
2022-11-20T00:51:21.598Z,42.92
2022-11-20T00:53:49.245Z,38.50
2022-11-20T00:56:18.842Z,41.03
2022-11-20T00:58:48.072Z,50.45
2022-11-20T01:01:20.881Z,45.20
2022-11-20T01:03:49.849Z,41.20
2022-11-20T01:06:23.389Z,37.60
2022-11-20T01:08:52.118Z,42.08
2022-11-20T01:11:22.493Z,38.17
2022-11-20T01:13:51.226Z,37.60
2022-11-20T01:16:30.576Z,44.15
2022-11-20T01:19:00.749Z,43.67
2022-11-20T01:21:37.347Z,31.83
2022-11-20T01:24:05.724Z,49.15
2022-11-20T01:26:36.152Z,43.97
2022-11-20T01:29:04.132Z,52.47
2022-11-20T01:31:36.488Z,41.92
2022-11-20T01:34:09.947Z,37.13
2022-11-20T01:36:39.304Z,31.27
2022-11-20T01:39:18.185Z,41.63
2022-11-20T01:42:09.459Z,33.78
2022-11-20T01:44:57.177Z,28.83
2022-11-20T01:47:33.139Z,28.42
2022-11-20T01:50:17.131Z,34.42
2022-11-20T01:52:50.391Z,39.58
2022-11-20T01:55:22.562Z,42.38
2022-11-20T01:57:50.283Z,40.90
2022-11-20T02:00:19.643Z,25.77
2022-11-20T02:02:55.071Z,40.70
2022-11-20T02:05:30.891Z,41.58
2022-11-20T02:07:59.996Z,39.20
2022-11-20T02:10:29.247Z,40.55
2022-11-20T02:13:15.933Z,41.70
2022-11-20T02:15:44.019Z,40.33
2022-11-20T02:18:14.788Z,38.60
2022-11-20T02:20:45.393Z,55.08
2022-11-20T02:23:33.828Z,56.30
2022-11-20T02:26:03.486Z,54.65
2022-11-20T02:28:30.947Z,49.60
2022-11-20T02:30:58.071Z,48.67
2022-11-20T02:33:25.460Z,55.08
2022-11-20T02:35:52.472Z,54.83
2022-11-20T02:38:20.377Z,51.33
2022-11-20T02:40:51.369Z,53.22
2022-11-20T02:43:21.512Z,48.43
2022-11-20T02:45:48.530Z,45.83
2022-11-20T02:48:15.791Z,42.30
2022-11-20T02:50:43.735Z,45.53
2022-11-20T02:53:11.192Z,49.53
2022-11-20T02:55:38.402Z,49.22
2022-11-20T02:58:05.726Z,52.45
2022-11-20T03:00:33.013Z,49.22
2022-11-20T03:03:00.382Z,50.22
2022-11-20T03:05:27.357Z,47.30
2022-11-20T03:07:54.635Z,45.75
2022-11-20T03:10:21.584Z,47.70
2022-11-20T03:12:53.321Z,44.58
2022-11-20T03:15:20.364Z,47.55
2022-11-20T03:17:47.689Z,49.90
2022-11-20T03:20:14.704Z,52.90
2022-11-20T03:22:42.339Z,46.75
2022-11-20T03:25:09.516Z,46.97
2022-11-20T03:27:36.862Z,51.53
2022-11-20T03:30:04.714Z,44.47
2022-11-20T03:32:32.343Z,43.53
2022-11-20T03:34:59.315Z,48.25
2022-11-20T03:37:26.640Z,48.75
2022-11-20T03:39:53.809Z,50.38
2022-11-20T03:42:39.764Z,42.25
2022-11-20T03:45:07.256Z,52.10
2022-11-20T03:47:34.504Z,55.85
2022-11-20T03:50:01.490Z,50.03
2022-11-20T03:52:28.751Z,52.78
2022-11-20T03:54:55.830Z,46.22
2022-11-20T03:57:23.135Z,49.38
2022-11-20T03:59:50.107Z,47.75
2022-11-20T04:02:17.547Z,49.75
2022-11-20T04:04:44.531Z,49.70
2022-11-20T04:07:11.891Z,57.53
2022-11-20T04:09:38.938Z,50.30
2022-11-20T04:12:06.340Z,53.78
2022-11-20T04:14:33.311Z,54.63
2022-11-20T04:17:00.761Z,43.28
2022-11-20T04:19:27.967Z,57.03
2022-11-20T04:21:55.199Z,57.83
2022-11-20T04:24:22.329Z,53.45
2022-11-20T04:26:49.650Z,42.50
2022-11-20T04:29:16.745Z,49.00
2022-11-20T04:31:46.549Z,55.00
2022-11-20T04:34:13.885Z,52.42
2022-11-20T04:36:41.318Z,46.58
2022-11-20T04:39:08.336Z,59.92
2022-11-20T04:41:37.328Z,40.03
2022-11-20T04:44:05.881Z,46.58
2022-11-20T04:46:36.215Z,41.15
2022-11-20T04:49:03.492Z,56.28
2022-11-20T04:51:30.878Z,51.60
2022-11-20T04:53:58.131Z,47.22
2022-11-20T04:56:25.590Z,51.88
2022-11-20T04:58:52.565Z,50.67
2022-11-20T05:01:22.377Z,50.55
2022-11-20T05:03:50.246Z,49.53
2022-11-20T05:06:20.182Z,56.35
2022-11-20T05:08:47.180Z,56.13
2022-11-20T05:11:17.859Z,50.47
2022-11-20T05:13:45.125Z,57.80
2022-11-20T05:16:18.347Z,53.75
2022-11-20T05:18:45.752Z,58.80
2022-11-20T05:21:13.932Z,52.60
2022-11-20T05:23:41.251Z,53.13
2022-11-20T05:26:13.037Z,56.40
2022-11-20T05:28:39.985Z,63.38
2022-11-20T05:31:17.986Z,78.60
2022-11-20T05:33:47.941Z,59.60
2022-11-20T05:36:16.039Z,53.38
2022-11-20T05:38:43.474Z,57.53
2022-11-20T05:41:19.228Z,58.45
2022-11-20T05:43:47.521Z,48.70
2022-11-20T05:46:16.866Z,52.03
2022-11-20T05:48:45.013Z,60.65
2022-11-20T05:51:16.019Z,65.40
2022-11-20T05:53:48.104Z,86.03
2022-11-20T05:56:20.907Z,66.55
2022-11-20T05:58:48.809Z,60.95
2022-11-20T06:01:18.175Z,57.25
2022-11-20T06:03:48.389Z,55.47
2022-11-20T06:06:17.469Z,59.75
2022-11-20T06:08:45.288Z,64.20
2022-11-20T06:11:14.632Z,58.35
2022-11-20T06:13:42.596Z,67.82
2022-11-20T06:16:11.330Z,61.92
2022-11-20T06:18:38.748Z,75.70
2022-11-20T06:21:11.618Z,71.15
2022-11-20T06:23:38.972Z,53.88
2022-11-20T06:26:14.863Z,53.53
2022-11-20T06:28:41.898Z,55.70
2022-11-20T06:31:12.976Z,64.70
2022-11-20T06:33:40.314Z,124.13
2022-11-20T06:36:10.835Z,108.32
2022-11-20T06:38:38.950Z,59.55
2022-11-20T06:41:07.223Z,72.55
2022-11-20T06:43:34.277Z,76.97
2022-11-20T06:46:01.498Z,76.80
2022-11-20T06:48:30.082Z,71.95
2022-11-20T06:50:58.269Z,69.15
2022-11-20T06:53:25.781Z,53.00
2022-11-20T06:55:53.598Z,56.28
2022-11-20T06:58:20.640Z,65.95
2022-11-20T07:00:47.951Z,54.42
2022-11-20T07:03:15.145Z,76.00
2022-11-20T07:05:46.177Z,84.80
2022-11-20T07:08:13.607Z,71.90
2022-11-20T07:10:40.930Z,55.53
2022-11-20T07:13:08.039Z,63.22
2022-11-20T07:15:36.003Z,69.05
2022-11-20T07:18:03.201Z,84.40
2022-11-20T07:20:30.646Z,59.38
2022-11-20T07:22:59.034Z,68.38
2022-11-20T07:25:28.004Z,52.10
2022-11-20T07:28:00.833Z,69.05
2022-11-20T07:30:31.710Z,80.25
2022-11-20T07:32:59.210Z,94.78
2022-11-20T07:35:26.588Z,49.05
2022-11-20T07:37:53.571Z,107.22
2022-11-20T07:40:21.329Z,79.78
2022-11-20T07:42:53.889Z,47.97
2022-11-20T07:45:24.369Z,70.18
2022-11-20T07:47:52.247Z,58.05
2022-11-20T07:50:20.626Z,66.95
2022-11-20T07:52:47.764Z,64.55
2022-11-20T07:55:15.484Z,61.58
2022-11-20T07:57:42.691Z,62.28
2022-11-20T08:00:12.439Z,46.55
2022-11-20T08:02:40.552Z,55.75
2022-11-20T08:05:09.450Z,51.30
2022-11-20T08:07:45.166Z,62.50
2022-11-20T08:10:15.238Z,69.03
2022-11-20T08:13:08.214Z,69.32
2022-11-20T08:15:36.203Z,54.38
2022-11-20T08:20:52.923Z,67.63
2022-11-20T08:23:19.951Z,76.03
2022-11-20T08:25:50.873Z,76.50
2022-11-20T08:28:21.311Z,91.15
2022-11-20T08:30:50.984Z,72.97
2022-11-20T08:33:19.013Z,103.00
2022-11-20T08:35:46.620Z,86.32
2022-11-20T08:38:13.745Z,72.70
2022-11-20T08:40:41.041Z,71.72
2022-11-20T08:43:08.090Z,59.42
2022-11-20T08:45:35.734Z,58.63
2022-11-20T08:48:04.613Z,69.82
2022-11-20T08:50:33.964Z,56.67
2022-11-20T08:53:07.490Z,65.00
2022-11-20T08:55:36.679Z,60.22
2022-11-20T08:58:07.822Z,64.57
2022-11-20T09:00:35.616Z,60.60
2022-11-20T09:03:03.255Z,67.80
2022-11-20T09:05:30.733Z,53.30
2022-11-20T09:07:59.052Z,51.65
2022-11-20T09:10:27.623Z,62.40
2022-11-20T09:12:58.096Z,47.25
2022-11-20T09:15:26.180Z,38.28
2022-11-20T09:17:54.329Z,48.25
2022-11-20T09:20:21.847Z,57.08
2022-11-20T09:22:49.509Z,51.25
2022-11-20T09:25:16.840Z,62.38
2022-11-20T09:27:46.655Z,63.67
2022-11-20T09:30:18.204Z,68.88
2022-11-20T09:32:45.705Z,65.85
2022-11-20T09:35:12.914Z,56.40
2022-11-20T09:37:40.264Z,62.75
2022-11-20T09:40:17.896Z,58.75
2022-11-20T09:43:04.376Z,54.25
2022-11-20T09:46:05.350Z,59.83
2022-11-20T09:49:00.348Z,43.85
2022-11-20T09:52:05.000Z,62.07
2022-11-20T09:54:36.687Z,53.53
2022-11-20T09:57:12.671Z,48.13
2022-11-20T09:59:43.525Z,40.42
2022-11-20T10:02:42.988Z,60.83
2022-11-20T10:05:28.742Z,53.88
2022-11-20T10:08:17.124Z,64.63
2022-11-20T10:11:05.610Z,79.13
2022-11-20T10:13:51.474Z,71.35
2022-11-20T10:16:40.740Z,70.25
2022-11-20T10:19:24.623Z,90.30
2022-11-20T10:22:10.120Z,53.08
2022-11-20T10:24:45.098Z,39.15
2022-11-20T10:27:15.105Z,56.70
2022-11-20T10:29:47.318Z,52.80
2022-11-20T10:32:19.673Z,61.67
2022-11-20T10:35:15.398Z,49.58
2022-11-20T10:37:46.679Z,81.75
2022-11-20T10:40:39.060Z,55.60
2022-11-20T10:43:12.434Z,86.97
2022-11-20T10:45:58.582Z,77.70
2022-11-20T10:48:27.914Z,72.10
2022-11-20T10:51:00.497Z,58.38
2022-11-20T10:54:25.331Z,65.90
2022-11-20T10:56:57.413Z,82.55
2022-11-20T10:59:42.701Z,77.47
2022-11-20T11:02:18.599Z,77.78
2022-11-20T11:04:52.282Z,53.45
2022-11-20T11:07:56.804Z,64.10
2022-11-20T11:10:56.870Z,75.55
2022-11-20T11:13:28.603Z,77.60
2022-11-20T11:15:56.499Z,78.00
2022-11-20T11:18:31.222Z,72.07
2022-11-20T11:23:37.530Z,52.35
2022-11-20T11:26:18.420Z,52.90
2022-11-20T11:28:55.464Z,61.20
2022-11-20T11:31:26.512Z,72.88
2022-11-20T11:34:04.265Z,58.17
2022-11-20T11:36:33.495Z,59.47
2022-11-20T11:39:01.519Z,54.92
2022-11-20T11:41:38.460Z,64.22
2022-11-20T11:44:47.779Z,53.03
2022-11-20T11:47:27.435Z,46.53
2022-11-20T11:50:17.478Z,57.28
2022-11-20T11:53:14.024Z,54.17
2022-11-20T11:56:04.905Z,60.67
2022-11-20T11:58:48.548Z,66.10
2022-11-20T12:01:39.388Z,71.18
2022-11-20T12:04:08.758Z,55.70
2022-11-20T12:06:39.038Z,80.82
2022-11-20T12:09:11.237Z,83.30
2022-11-20T12:12:05.899Z,115.10
2022-11-20T12:14:40.314Z,89.93
2022-11-20T12:17:13.043Z,89.17
2022-11-20T12:19:41.728Z,98.47
2022-11-20T12:22:14.607Z,68.40
2022-11-20T12:25:01.994Z,103.55
2022-11-20T12:27:47.777Z,125.72
2022-11-20T12:30:20.897Z,65.60
2022-11-20T12:33:12.319Z,68.82
2022-11-20T12:35:50.846Z,71.15
2022-11-20T12:38:51.285Z,59.97
2022-11-20T12:42:10.964Z,63.38
2022-11-20T12:45:10.294Z,102.68
2022-11-20T12:48:04.013Z,85.57
2022-11-20T12:51:08.057Z,63.55
2022-11-20T12:53:56.998Z,68.40
2022-11-20T12:56:36.684Z,82.43
2022-11-20T12:59:25.088Z,114.63
2022-11-20T13:02:00.471Z,85.72
2022-11-20T13:04:36.669Z,86.43
2022-11-20T13:07:13.524Z,86.25
2022-11-20T13:09:46.785Z,64.50
2022-11-20T13:12:25.784Z,95.43
2022-11-20T13:15:18.002Z,65.75
2022-11-20T13:17:59.961Z,58.53
2022-11-20T13:20:28.977Z,81.50
2022-11-20T13:22:58.234Z,70.13
2022-11-20T13:25:27.042Z,63.42
2022-11-20T13:27:57.208Z,56.53
2022-11-20T13:30:27.764Z,77.80
2022-11-20T13:33:05.239Z,78.97
2022-11-20T13:35:43.119Z,67.00
2022-11-20T13:38:15.768Z,77.25
2022-11-20T13:40:56.682Z,77.78
2022-11-20T13:43:42.294Z,68.53
2022-11-20T13:46:10.689Z,71.32
2022-11-20T13:48:43.745Z,66.32
2022-11-20T13:51:40.997Z,85.47
2022-11-20T13:54:08.034Z,77.78
2022-11-20T13:56:48.772Z,78.13
2022-11-20T14:00:06.509Z,68.70
2022-11-20T14:02:38.803Z,92.90
2022-11-20T14:05:07.087Z,74.50
2022-11-20T14:07:42.890Z,85.72
2022-11-20T14:10:32.250Z,78.45
2022-11-20T14:13:10.462Z,50.88
2022-11-20T14:15:44.600Z,66.65
2022-11-20T14:18:23.478Z,65.13
2022-11-20T14:20:50.659Z,68.35
2022-11-20T14:23:30.175Z,60.45
2022-11-20T14:25:57.987Z,63.15
2022-11-20T14:28:31.330Z,56.65
2022-11-20T14:30:58.841Z,62.80
2022-11-20T14:33:28.325Z,51.88
2022-11-20T14:36:00.441Z,59.40
2022-11-20T14:38:33.429Z,47.65
2022-11-20T14:41:17.160Z,71.10
2022-11-20T14:43:48.257Z,57.22
2022-11-20T14:46:15.532Z,49.60
2022-11-20T14:48:50.711Z,61.15
2022-11-20T14:51:33.129Z,70.15
2022-11-20T14:54:15.740Z,60.03
2022-11-20T14:56:54.142Z,54.53
2022-11-20T14:59:30.470Z,67.57
2022-11-20T15:02:00.619Z,89.88
2022-11-20T15:04:28.178Z,68.13
2022-11-20T15:06:57.315Z,86.07
2022-11-20T15:09:25.295Z,79.20
2022-11-20T15:12:01.311Z,63.42
2022-11-20T15:14:30.873Z,92.20
2022-11-20T15:16:58.347Z,78.90
2022-11-20T15:19:27.719Z,71.80
2022-11-20T15:21:54.820Z,73.30
2022-11-20T15:24:22.420Z,84.50
2022-11-20T15:26:52.474Z,60.00
2022-11-20T15:29:21.939Z,60.95
2022-11-20T15:31:49.107Z,50.42
2022-11-20T15:34:17.221Z,52.22
2022-11-20T15:36:44.871Z,61.17
2022-11-20T15:39:12.612Z,62.30
2022-11-20T15:41:40.224Z,60.92
2022-11-20T15:44:07.754Z,55.35
2022-11-20T15:46:40.947Z,56.63
2022-11-20T15:49:13.651Z,65.47
2022-11-20T15:51:44.335Z,87.47
2022-11-20T15:54:14.189Z,95.60
2022-11-20T15:56:41.358Z,71.90
2022-11-20T15:59:08.914Z,68.75
2022-11-20T16:01:36.753Z,70.95
2022-11-20T16:04:09.859Z,65.25
2022-11-20T16:06:36.841Z,62.20
2022-11-20T16:09:04.868Z,75.35
2022-11-20T16:11:32.013Z,75.70
2022-11-20T16:14:21.273Z,69.55
2022-11-20T16:16:48.704Z,74.28
2022-11-20T16:19:16.782Z,55.05
2022-11-20T16:21:43.949Z,62.58
2022-11-20T16:24:13.961Z,70.70
2022-11-20T16:26:41.415Z,54.70
2022-11-20T16:29:08.840Z,59.28
2022-11-20T16:31:36.016Z,62.20
2022-11-20T16:34:11.997Z,59.92
2022-11-20T16:36:44.525Z,51.75
2022-11-20T16:39:12.819Z,65.05
2022-11-20T16:41:40.072Z,86.40
2022-11-20T16:44:10.997Z,79.22
2022-11-20T16:46:38.995Z,78.10
2022-11-20T16:49:13.984Z,56.33
2022-11-20T16:51:41.797Z,55.80
2022-11-20T16:54:10.747Z,67.85
2022-11-20T16:56:37.989Z,52.63
2022-11-20T16:59:05.602Z,64.10
2022-11-20T17:01:32.992Z,47.50
2022-11-20T17:04:05.901Z,54.45
2022-11-20T17:06:38.955Z,54.35
2022-11-20T17:09:09.513Z,48.80
2022-11-20T17:11:37.449Z,66.85
2022-11-20T17:14:07.601Z,60.03
2022-11-20T17:16:36.464Z,75.60
2022-11-20T17:19:05.368Z,64.18
2022-11-20T17:21:33.753Z,68.60
2022-11-20T17:24:03.198Z,68.50
2022-11-20T17:26:30.781Z,75.82
2022-11-20T17:29:11.249Z,97.38
2022-11-20T17:31:39.061Z,75.38
2022-11-20T17:34:07.734Z,77.85
2022-11-20T17:36:35.362Z,64.63
2022-11-20T17:39:03.338Z,70.60
2022-11-20T17:41:30.525Z,70.53
2022-11-20T17:44:00.582Z,71.88
2022-11-20T17:46:30.052Z,82.57
2022-11-20T17:48:57.346Z,77.35
2022-11-20T17:51:29.485Z,76.63
2022-11-20T17:54:02.550Z,61.08
2022-11-20T17:56:52.583Z,76.43
2022-11-20T17:59:20.359Z,123.28
2022-11-20T18:01:48.577Z,136.85
2022-11-20T18:04:16.867Z,100.40
2022-11-20T18:06:44.225Z,84.93
2022-11-20T18:09:12.295Z,190.65
2022-11-20T18:11:41.292Z,105.70
2022-11-20T18:14:31.887Z,87.30
2022-11-20T18:17:08.484Z,93.25
2022-11-20T18:20:01.134Z,88.72
2022-11-20T18:24:59.618Z,78.55
2022-11-20T18:27:26.695Z,101.80
2022-11-20T18:29:54.065Z,83.13
2022-11-20T18:32:23.196Z,91.70
2022-11-20T18:34:51.285Z,91.68
2022-11-20T18:37:19.199Z,99.47
2022-11-20T18:39:46.560Z,97.53
2022-11-20T18:42:35.152Z,118.35
2022-11-20T18:45:04.463Z,107.45
2022-11-20T18:47:36.081Z,160.13
2022-11-20T18:50:05.236Z,201.13
2022-11-20T18:52:34.695Z,154.52
2022-11-20T18:55:04.011Z,130.20
2022-11-20T18:57:31.740Z,119.53
2022-11-20T19:00:06.357Z,126.05
2022-11-20T19:02:40.940Z,108.32
2022-11-20T19:05:14.389Z,145.15
2022-11-20T19:07:42.479Z,253.75
2022-11-20T19:10:10.044Z,301.02
2022-11-20T19:12:40.042Z,268.55
2022-11-20T19:15:08.624Z,199.45
2022-11-20T19:17:35.809Z,166.27
2022-11-20T19:20:03.460Z,159.80
2022-11-20T19:22:30.550Z,241.05
2022-11-20T19:24:57.893Z,162.93
2022-11-20T19:27:25.110Z,499.60
2022-11-20T19:29:52.476Z,276.88
2022-11-20T19:32:20.792Z,259.00
2022-11-20T19:34:48.228Z,368.83
2022-11-20T19:37:15.220Z,303.48
2022-11-20T19:39:42.736Z,247.93
2022-11-20T19:42:10.849Z,185.30
2022-11-20T19:44:38.293Z,158.45
2022-11-20T19:47:08.976Z,146.60
2022-11-20T19:49:38.303Z,134.35
2022-11-20T19:52:05.835Z,163.32
2022-11-20T19:54:33.176Z,137.02
2022-11-20T19:57:00.701Z,162.00
2022-11-20T19:59:28.229Z,136.25
2022-11-20T20:01:55.502Z,137.40
2022-11-20T20:04:22.914Z,133.38
2022-11-20T20:06:50.746Z,126.70
2022-11-20T20:09:18.037Z,167.35
2022-11-20T20:11:49.237Z,175.30
2022-11-20T20:14:16.736Z,170.57
2022-11-20T20:16:44.096Z,184.48
2022-11-20T20:19:14.003Z,183.48
2022-11-20T20:21:41.557Z,183.40
2022-11-20T20:24:10.528Z,146.98
2022-11-20T20:26:38.199Z,119.55
2022-11-20T20:29:05.516Z,125.72
2022-11-20T20:31:35.901Z,116.40
2022-11-20T20:34:05.353Z,104.40
2022-11-20T20:36:33.042Z,129.63
2022-11-20T20:39:02.515Z,157.52
2022-11-20T20:41:29.770Z,155.25
2022-11-20T20:44:15.497Z,197.40
2022-11-20T20:49:09.949Z,136.80
2022-11-20T20:51:37.018Z,146.23
2022-11-20T20:54:05.111Z,143.18
2022-11-20T20:56:32.231Z,165.65
2022-11-20T20:58:59.553Z,129.73
2022-11-20T21:01:28.951Z,150.75
2022-11-20T21:03:57.582Z,132.05
2022-11-20T21:06:25.714Z,105.72
2022-11-20T21:08:53.159Z,160.30
2022-11-20T21:11:20.751Z,127.00
2022-11-20T21:13:48.624Z,157.93
2022-11-20T21:16:17.531Z,169.65
2022-11-20T21:18:48.094Z,102.70
2022-11-20T21:21:35.291Z,142.23
2022-11-20T21:24:03.792Z,133.63
2022-11-20T21:26:30.963Z,132.30
2022-11-20T21:28:58.503Z,121.78
2022-11-20T21:31:26.824Z,105.05
2022-11-20T21:33:56.176Z,101.32
2022-11-20T21:36:29.055Z,129.68
2022-11-20T21:39:01.259Z,143.87
2022-11-20T21:41:33.008Z,101.28
2022-11-20T21:46:50.702Z,100.05
2022-11-20T21:49:18.300Z,97.82
2022-11-20T21:51:45.612Z,91.95
2022-11-20T21:54:13.131Z,112.88
2022-11-20T21:56:40.198Z,90.20
2022-11-20T21:59:10.421Z,103.28
2022-11-20T22:01:38.318Z,84.47
2022-11-20T22:04:07.725Z,116.25
2022-11-20T22:06:34.895Z,117.72
2022-11-20T22:09:03.630Z,105.60
2022-11-20T22:11:31.000Z,145.43
2022-11-20T22:14:17.356Z,118.80
2022-11-20T22:16:44.669Z,87.82
2022-11-20T22:19:15.377Z,92.15
2022-11-20T22:21:42.381Z,109.10
2022-11-20T22:24:14.361Z,123.38
2022-11-20T22:26:41.835Z,115.30
2022-11-20T22:29:23.747Z,91.82
2022-11-20T22:31:53.982Z,93.03
2022-11-20T22:34:21.501Z,94.53
2022-11-20T22:36:48.893Z,96.38
2022-11-20T22:39:16.462Z,103.78
2022-11-20T22:41:43.475Z,90.05
2022-11-20T22:44:14.269Z,88.85
2022-11-20T22:46:41.237Z,107.55
2022-11-20T22:49:08.819Z,104.22
2022-11-20T22:51:39.072Z,108.65
2022-11-20T22:54:07.077Z,116.20
2022-11-20T22:56:34.748Z,100.93
2022-11-20T22:59:02.188Z,102.50
2022-11-20T23:01:32.259Z,91.88
2022-11-20T23:04:02.480Z,118.22
2022-11-20T23:06:30.155Z,123.85
2022-11-20T23:08:57.702Z,106.47
2022-11-20T23:11:30.348Z,114.43
2022-11-20T23:14:03.892Z,106.10
2022-11-20T23:16:32.489Z,106.90
2022-11-20T23:19:03.673Z,96.18
2022-11-20T23:21:30.840Z,92.25
2022-11-20T23:23:59.145Z,96.07
2022-11-20T23:26:29.171Z,104.85
2022-11-20T23:29:00.355Z,89.70
2022-11-20T23:31:28.961Z,85.28
2022-11-20T23:33:56.468Z,87.22
2022-11-20T23:36:23.653Z,124.95
2022-11-20T23:38:51.001Z,121.55
2022-11-20T23:41:18.280Z,121.75
2022-11-20T23:43:45.501Z,104.18
2022-11-20T23:46:16.203Z,95.50
2022-11-20T23:48:45.428Z,115.25
2022-11-20T23:51:13.185Z,88.90
2022-11-20T23:53:40.565Z,100.75
2022-11-20T23:56:07.750Z,93.40
2022-11-20T23:58:39.210Z,96.53
